sensor_id;sensor_type;location;lat;lon;timestamp;pressure;altitude;pressure_sealevel;temperature;humidity
64404;BME280;50726;54.912;-8.392;2023-02-19T00:01:11;101629.63;;;26.82;60.44
64404;BME280;50726;54.912;-8.392;2023-02-19T00:03:37;101635.50;;;26.51;62.45
64404;BME280;50726;54.912;-8.392;2023-02-19T00:06:05;101642.81;;;27.44;62.01
64404;BME280;50726;54.912;-8.392;2023-02-19T00:08:32;101640.09;;;28.35;60.67
64404;BME280;50726;54.912;-8.392;2023-02-19T00:11:21;101627.53;;;28.24;60.68
64404;BME280;50726;54.912;-8.392;2023-02-19T00:13:48;101641.13;;;28.00;61.19
64404;BME280;50726;54.912;-8.392;2023-02-19T00:16:20;101639.75;;;28.94;59.99
64404;BME280;50726;54.912;-8.392;2023-02-19T00:18:47;101642.19;;;28.32;60.26
64404;BME280;50726;54.912;-8.392;2023-02-19T00:21:14;101630.97;;;28.15;60.26
64404;BME280;50726;54.912;-8.392;2023-02-19T00:23:40;101641.66;;;27.82;60.69
64404;BME280;50726;54.912;-8.392;2023-02-19T00:26:08;101638.94;;;27.94;61.10
64404;BME280;50726;54.912;-8.392;2023-02-19T00:28:34;101644.66;;;28.00;61.48
64404;BME280;50726;54.912;-8.392;2023-02-19T00:31:23;101641.53;;;27.95;62.12
64404;BME280;50726;54.912;-8.392;2023-02-19T00:33:51;101642.09;;;27.30;62.92
64404;BME280;50726;54.912;-8.392;2023-02-19T00:36:18;101635.25;;;27.49;61.83
64404;BME280;50726;54.912;-8.392;2023-02-19T00:38:44;101621.25;;;26.62;63.53
64404;BME280;50726;54.912;-8.392;2023-02-19T00:41:11;101619.03;;;27.51;63.17
64404;BME280;50726;54.912;-8.392;2023-02-19T00:43:47;101620.75;;;28.41;61.71
64404;BME280;50726;54.912;-8.392;2023-02-19T00:46:18;101622.28;;;27.20;62.97
64404;BME280;50726;54.912;-8.392;2023-02-19T00:48:44;101630.97;;;27.46;61.55
64404;BME280;50726;54.912;-8.392;2023-02-19T00:51:10;101638.16;;;27.12;62.92
64404;BME280;50726;54.912;-8.392;2023-02-19T00:53:36;101649.16;;;26.84;63.70
64404;BME280;50726;54.912;-8.392;2023-02-19T00:56:01;101644.59;;;26.98;62.24
64404;BME280;50726;54.912;-8.392;2023-02-19T00:58:27;101654.97;;;27.02;62.77
64404;BME280;50726;54.912;-8.392;2023-02-19T01:00:53;101657.06;;;27.69;61.89
64404;BME280;50726;54.912;-8.392;2023-02-19T01:03:18;101666.09;;;27.09;61.96
64404;BME280;50726;54.912;-8.392;2023-02-19T01:05:48;101667.28;;;27.98;61.65
64404;BME280;50726;54.912;-8.392;2023-02-19T01:08:13;101670.38;;;27.12;62.19
64404;BME280;50726;54.912;-8.392;2023-02-19T01:10:39;101665.75;;;27.25;62.39
64404;BME280;50726;54.912;-8.392;2023-02-19T01:13:05;101654.94;;;26.66;62.30
64404;BME280;50726;54.912;-8.392;2023-02-19T01:15:33;101667.00;;;27.55;61.75
64404;BME280;50726;54.912;-8.392;2023-02-19T01:17:58;101665.84;;;27.71;60.89
64404;BME280;50726;54.912;-8.392;2023-02-19T01:20:24;101666.19;;;27.55;61.12
64404;BME280;50726;54.912;-8.392;2023-02-19T01:22:51;101670.47;;;27.92;61.84
64404;BME280;50726;54.912;-8.392;2023-02-19T01:25:17;101662.50;;;28.57;60.05
64404;BME280;50726;54.912;-8.392;2023-02-19T01:27:43;101666.81;;;27.58;61.23
64404;BME280;50726;54.912;-8.392;2023-02-19T01:30:09;101661.66;;;28.12;60.81
64404;BME280;50726;54.912;-8.392;2023-02-19T01:32:35;101675.09;;;28.12;61.81
64404;BME280;50726;54.912;-8.392;2023-02-19T01:35:00;101685.44;;;27.26;62.63
64404;BME280;50726;54.912;-8.392;2023-02-19T01:37:26;101699.03;;;28.15;61.25
64404;BME280;50726;54.912;-8.392;2023-02-19T01:39:52;101708.69;;;28.41;61.00
64404;BME280;50726;54.912;-8.392;2023-02-19T01:42:17;101711.53;;;27.94;61.14
64404;BME280;50726;54.912;-8.392;2023-02-19T01:47:14;101709.31;;;28.22;62.06
64404;BME280;50726;54.912;-8.392;2023-02-19T01:49:49;101697.22;;;29.26;60.15
64404;BME280;50726;54.912;-8.392;2023-02-19T01:52:24;101691.13;;;30.88;57.39
64404;BME280;50726;54.912;-8.392;2023-02-19T01:54:52;101701.00;;;29.66;58.25
64404;BME280;50726;54.912;-8.392;2023-02-19T01:57:20;101692.19;;;29.95;59.32
64404;BME280;50726;54.912;-8.392;2023-02-19T01:59:48;101679.09;;;32.06;55.61
64404;BME280;50726;54.912;-8.392;2023-02-19T02:02:22;101690.94;;;31.67;55.77
64404;BME280;50726;54.912;-8.392;2023-02-19T02:04:54;101683.53;;;29.60;58.76
64404;BME280;50726;54.912;-8.392;2023-02-19T02:07:21;101677.53;;;29.78;58.16
64404;BME280;50726;54.912;-8.392;2023-02-19T02:10:07;101682.28;;;29.21;58.80
64404;BME280;50726;54.912;-8.392;2023-02-19T02:12:45;101694.81;;;29.75;57.60
64404;BME280;50726;54.912;-8.392;2023-02-19T02:15:12;101688.44;;;29.24;59.12
64404;BME280;50726;54.912;-8.392;2023-02-19T02:31:16;101687.94;;;29.61;60.67
64404;BME280;50726;54.912;-8.392;2023-02-19T02:34:50;101690.13;;;28.15;63.48
64404;BME280;50726;54.912;-8.392;2023-02-19T02:36:56;101705.00;;;27.03;65.68
64404;BME280;50726;54.912;-8.392;2023-02-19T02:39:24;101703.22;;;27.85;63.52
64404;BME280;50726;54.912;-8.392;2023-02-19T02:41:55;101692.00;;;28.59;63.26
64404;BME280;50726;54.912;-8.392;2023-02-19T02:44:40;101712.31;;;29.17;61.57
64404;BME280;50726;54.912;-8.392;2023-02-19T02:47:08;101722.44;;;27.33;64.22
64404;BME280;50726;54.912;-8.392;2023-02-19T02:49:56;101709.00;;;29.25;62.27
64404;BME280;50726;54.912;-8.392;2023-02-19T02:52:38;101705.13;;;28.85;64.32
64404;BME280;50726;54.912;-8.392;2023-02-19T02:55:25;101706.94;;;30.32;60.60
64404;BME280;50726;54.912;-8.392;2023-02-19T02:57:54;101718.69;;;30.11;58.95
64404;BME280;50726;54.912;-8.392;2023-02-19T03:00:20;101706.38;;;30.38;60.39
64404;BME280;50726;54.912;-8.392;2023-02-19T03:02:48;101677.97;;;28.76;62.58
64404;BME280;50726;54.912;-8.392;2023-02-19T03:05:23;101703.19;;;28.43;64.86
64404;BME280;50726;54.912;-8.392;2023-02-19T03:08:15;101710.28;;;28.88;63.47
64404;BME280;50726;54.912;-8.392;2023-02-19T03:10:48;101711.22;;;29.19;62.85
64404;BME280;50726;54.912;-8.392;2023-02-19T03:13:21;101718.00;;;28.81;63.07
64404;BME280;50726;54.912;-8.392;2023-02-19T03:16:13;101709.66;;;28.84;63.94
64404;BME280;50726;54.912;-8.392;2023-02-19T03:19:00;101714.56;;;29.33;63.80
64404;BME280;50726;54.912;-8.392;2023-02-19T03:22:05;101704.88;;;28.88;63.63
64404;BME280;50726;54.912;-8.392;2023-02-19T03:24:39;101718.59;;;29.60;63.71
64404;BME280;50726;54.912;-8.392;2023-02-19T03:27:25;101713.00;;;29.52;62.77
64404;BME280;50726;54.912;-8.392;2023-02-19T03:29:56;101688.88;;;31.51;60.37
64404;BME280;50726;54.912;-8.392;2023-02-19T03:32:45;101704.28;;;30.00;62.24
64404;BME280;50726;54.912;-8.392;2023-02-19T03:35:17;101713.78;;;28.56;63.21
64404;BME280;50726;54.912;-8.392;2023-02-19T03:40:14;101688.09;;;28.84;65.09
64404;BME280;50726;54.912;-8.392;2023-02-19T03:45:46;101693.88;;;27.55;69.89
64404;BME280;50726;54.912;-8.392;2023-02-19T03:54:22;101658.13;;;30.04;64.04
64404;BME280;50726;54.912;-8.392;2023-02-19T03:57:02;101655.28;;;30.76;62.41
64404;BME280;50726;54.912;-8.392;2023-02-19T03:59:42;101649.28;;;31.02;61.01
64404;BME280;50726;54.912;-8.392;2023-02-19T04:02:13;101655.66;;;29.18;63.75
64404;BME280;50726;54.912;-8.392;2023-02-19T04:04:55;101645.16;;;29.46;62.02
64404;BME280;50726;54.912;-8.392;2023-02-19T04:07:26;101642.31;;;30.99;61.09
64404;BME280;50726;54.912;-8.392;2023-02-19T04:09:53;101634.09;;;31.48;60.47
64404;BME280;50726;54.912;-8.392;2023-02-19T04:12:19;101625.34;;;29.98;60.86
64404;BME280;50726;54.912;-8.392;2023-02-19T04:15:05;101638.56;;;30.01;61.46
64404;BME280;50726;54.912;-8.392;2023-02-19T04:17:39;101637.91;;;30.98;60.46
64404;BME280;50726;54.912;-8.392;2023-02-19T04:20:09;101632.28;;;29.91;62.85
64404;BME280;50726;54.912;-8.392;2023-02-19T04:22:36;101639.91;;;30.27;60.28
64404;BME280;50726;54.912;-8.392;2023-02-19T04:25:03;101623.84;;;28.70;62.63
64404;BME280;50726;54.912;-8.392;2023-02-19T04:27:29;101610.25;;;29.45;61.36
64404;BME280;50726;54.912;-8.392;2023-02-19T04:29:55;101599.09;;;29.50;61.71
64404;BME280;50726;54.912;-8.392;2023-02-19T04:32:20;101616.63;;;28.91;62.61
64404;BME280;50726;54.912;-8.392;2023-02-19T04:34:46;101652.41;;;27.82;62.91
64404;BME280;50726;54.912;-8.392;2023-02-19T04:37:12;101617.81;;;28.66;62.19
64404;BME280;50726;54.912;-8.392;2023-02-19T04:39:38;101620.97;;;28.71;62.25
64404;BME280;50726;54.912;-8.392;2023-02-19T04:42:04;101612.72;;;28.84;62.20
64404;BME280;50726;54.912;-8.392;2023-02-19T04:44:29;101639.78;;;27.26;64.36
64404;BME280;50726;54.912;-8.392;2023-02-19T04:46:55;101627.53;;;26.74;65.57
64404;BME280;50726;54.912;-8.392;2023-02-19T04:49:21;101630.38;;;27.43;65.09
64404;BME280;50726;54.912;-8.392;2023-02-19T04:51:46;101650.28;;;27.52;62.89
64404;BME280;50726;54.912;-8.392;2023-02-19T04:54:12;101626.31;;;26.78;64.84
64404;BME280;50726;54.912;-8.392;2023-02-19T04:56:38;101639.44;;;27.99;63.73
64404;BME280;50726;54.912;-8.392;2023-02-19T04:59:04;101623.63;;;28.06;62.57
64404;BME280;50726;54.912;-8.392;2023-02-19T05:01:30;101630.56;;;28.97;62.04
64404;BME280;50726;54.912;-8.392;2023-02-19T05:03:55;101613.66;;;27.51;62.26
64404;BME280;50726;54.912;-8.392;2023-02-19T05:06:21;101622.16;;;26.01;65.74
64404;BME280;50726;54.912;-8.392;2023-02-19T05:08:47;101654.78;;;26.57;63.97
64404;BME280;50726;54.912;-8.392;2023-02-19T05:11:13;101617.56;;;26.88;65.19
64404;BME280;50726;54.912;-8.392;2023-02-19T05:13:39;101601.81;;;27.87;62.75
64404;BME280;50726;54.912;-8.392;2023-02-19T05:16:08;101630.34;;;27.20;65.12
64404;BME280;50726;54.912;-8.392;2023-02-19T05:18:34;101624.09;;;26.97;64.41
64404;BME280;50726;54.912;-8.392;2023-02-19T05:21:00;101597.66;;;27.49;62.40
64404;BME280;50726;54.912;-8.392;2023-02-19T05:23:27;101601.28;;;28.05;63.63
64404;BME280;50726;54.912;-8.392;2023-02-19T05:25:53;101598.00;;;28.01;60.93
64404;BME280;50726;54.912;-8.392;2023-02-19T05:28:19;101610.03;;;27.63;63.07
64404;BME280;50726;54.912;-8.392;2023-02-19T05:30:50;101588.78;;;27.60;62.42
64404;BME280;50726;54.912;-8.392;2023-02-19T05:33:18;101586.06;;;28.60;61.39
64404;BME280;50726;54.912;-8.392;2023-02-19T05:35:54;101588.38;;;28.86;59.55
64404;BME280;50726;54.912;-8.392;2023-02-19T05:38:21;101582.81;;;28.45;58.70
64404;BME280;50726;54.912;-8.392;2023-02-19T05:40:47;101591.47;;;27.60;62.30
64404;BME280;50726;54.912;-8.392;2023-02-19T05:43:13;101573.25;;;29.47;59.49
64404;BME280;50726;54.912;-8.392;2023-02-19T05:45:39;101561.63;;;29.15;59.07
64404;BME280;50726;54.912;-8.392;2023-02-19T05:48:06;101560.38;;;30.31;56.54
64404;BME280;50726;54.912;-8.392;2023-02-19T05:50:34;101550.81;;;31.34;54.57
64404;BME280;50726;54.912;-8.392;2023-02-19T05:53:03;101552.34;;;28.98;59.36
64404;BME280;50726;54.912;-8.392;2023-02-19T05:55:32;101540.84;;;31.25;56.13
64404;BME280;50726;54.912;-8.392;2023-02-19T05:57:58;101545.91;;;26.77;63.91
64404;BME280;50726;54.912;-8.392;2023-02-19T06:00:24;101533.25;;;29.93;55.56
64404;BME280;50726;54.912;-8.392;2023-02-19T06:02:52;101524.56;;;30.59;56.43
64404;BME280;50726;54.912;-8.392;2023-02-19T06:05:19;101489.38;;;27.60;61.01
64404;BME280;50726;54.912;-8.392;2023-02-19T06:07:45;101503.34;;;26.72;64.42
64404;BME280;50726;54.912;-8.392;2023-02-19T06:10:11;101509.81;;;28.28;61.81
64404;BME280;50726;54.912;-8.392;2023-02-19T06:12:38;101507.13;;;28.49;60.87
64404;BME280;50726;54.912;-8.392;2023-02-19T06:15:05;101524.19;;;27.04;64.06
64404;BME280;50726;54.912;-8.392;2023-02-19T06:17:32;101535.53;;;26.25;66.10
64404;BME280;50726;54.912;-8.392;2023-02-19T06:19:58;101531.38;;;27.04;65.21
64404;BME280;50726;54.912;-8.392;2023-02-19T06:22:24;101509.78;;;27.05;66.03
64404;BME280;50726;54.912;-8.392;2023-02-19T06:24:50;101502.69;;;27.16;64.88
64404;BME280;50726;54.912;-8.392;2023-02-19T06:27:16;101544.91;;;27.48;64.79
64404;BME280;50726;54.912;-8.392;2023-02-19T06:29:42;101519.38;;;28.42;62.34
64404;BME280;50726;54.912;-8.392;2023-02-19T06:32:09;101534.28;;;28.46;62.64
64404;BME280;50726;54.912;-8.392;2023-02-19T06:34:35;101524.09;;;26.70;65.96
64404;BME280;50726;54.912;-8.392;2023-02-19T06:37:01;101503.50;;;28.06;64.31
64404;BME280;50726;54.912;-8.392;2023-02-19T06:39:27;101530.47;;;25.71;68.04
64404;BME280;50726;54.912;-8.392;2023-02-19T06:41:57;101525.75;;;26.96;68.51
64404;BME280;50726;54.912;-8.392;2023-02-19T06:44:23;101538.94;;;26.51;69.24
64404;BME280;50726;54.912;-8.392;2023-02-19T06:46:50;101513.41;;;27.61;64.38
64404;BME280;50726;54.912;-8.392;2023-02-19T06:49:16;101517.94;;;27.04;64.67
64404;BME280;50726;54.912;-8.392;2023-02-19T06:51:42;101522.22;;;27.18;63.85
64404;BME280;50726;54.912;-8.392;2023-02-19T06:54:08;101545.38;;;26.96;63.55
64404;BME280;50726;54.912;-8.392;2023-02-19T06:56:36;101539.69;;;25.67;68.99
64404;BME280;50726;54.912;-8.392;2023-02-19T06:59:06;101559.69;;;25.24;70.90
64404;BME280;50726;54.912;-8.392;2023-02-19T07:01:33;101515.50;;;27.12;66.35
64404;BME280;50726;54.912;-8.392;2023-02-19T07:04:00;101499.97;;;24.98;68.99
64404;BME280;50726;54.912;-8.392;2023-02-19T07:06:26;101509.44;;;26.51;67.00
64404;BME280;50726;54.912;-8.392;2023-02-19T07:08:54;101535.53;;;28.63;62.75
64404;BME280;50726;54.912;-8.392;2023-02-19T07:11:21;101522.97;;;28.74;61.47
64404;BME280;50726;54.912;-8.392;2023-02-19T07:13:47;101535.06;;;26.78;62.39
64404;BME280;50726;54.912;-8.392;2023-02-19T07:16:18;101517.00;;;28.70;61.26
64404;BME280;50726;54.912;-8.392;2023-02-19T07:18:44;101534.47;;;26.27;64.39
64404;BME280;50726;54.912;-8.392;2023-02-19T07:21:12;101533.19;;;26.56;65.06
64404;BME280;50726;54.912;-8.392;2023-02-19T07:23:39;101539.16;;;27.30;62.26
64404;BME280;50726;54.912;-8.392;2023-02-19T07:26:10;101553.34;;;27.32;62.05
64404;BME280;50726;54.912;-8.392;2023-02-19T07:28:36;101544.19;;;27.12;61.44
64404;BME280;50726;54.912;-8.392;2023-02-19T07:31:03;101543.13;;;28.79;60.49
64404;BME280;50726;54.912;-8.392;2023-02-19T07:33:29;101575.78;;;27.08;63.37
64404;BME280;50726;54.912;-8.392;2023-02-19T07:35:55;101582.41;;;29.03;60.94
64404;BME280;50726;54.912;-8.392;2023-02-19T07:38:23;101610.56;;;27.21;61.96
64404;BME280;50726;54.912;-8.392;2023-02-19T07:41:07;101583.03;;;27.65;62.26
64404;BME280;50726;54.912;-8.392;2023-02-19T07:43:35;101557.34;;;27.83;63.53
64404;BME280;50726;54.912;-8.392;2023-02-19T07:46:06;101569.84;;;26.44;65.53
64404;BME280;50726;54.912;-8.392;2023-02-19T07:48:33;101562.56;;;27.96;64.44
64404;BME280;50726;54.912;-8.392;2023-02-19T07:50:59;101546.69;;;25.94;66.27
64404;BME280;50726;54.912;-8.392;2023-02-19T07:53:26;101548.44;;;26.91;66.42
64404;BME280;50726;54.912;-8.392;2023-02-19T07:55:52;101533.03;;;28.18;63.02
64404;BME280;50726;54.912;-8.392;2023-02-19T07:58:18;101488.22;;;25.75;68.96
64404;BME280;50726;54.912;-8.392;2023-02-19T08:00:44;101497.84;;;26.62;70.47
64404;BME280;50726;54.912;-8.392;2023-02-19T08:03:10;101523.50;;;24.92;74.00
64404;BME280;50726;54.912;-8.392;2023-02-19T08:05:38;101441.94;;;23.78;72.03
64404;BME280;50726;54.912;-8.392;2023-02-19T08:08:09;101560.19;;;24.90;71.31
64404;BME280;50726;54.912;-8.392;2023-02-19T08:10:35;101497.78;;;25.29;70.67
64404;BME280;50726;54.912;-8.392;2023-02-19T08:13:20;101452.69;;;26.45;68.15
64404;BME280;50726;54.912;-8.392;2023-02-19T08:16:09;101322.84;;;24.66;70.57
64404;BME280;50726;54.912;-8.392;2023-02-19T08:18:36;101500.78;;;25.11;70.71
64404;BME280;50726;54.912;-8.392;2023-02-19T08:21:02;101518.25;;;25.67;75.20
64404;BME280;50726;54.912;-8.392;2023-02-19T08:23:28;101543.47;;;24.06;76.41
64404;BME280;50726;54.912;-8.392;2023-02-19T08:25:56;101526.84;;;26.21;71.96
64404;BME280;50726;54.912;-8.392;2023-02-19T08:28:23;101524.34;;;25.19;72.78
64404;BME280;50726;54.912;-8.392;2023-02-19T08:30:49;101464.66;;;23.71;76.90
64404;BME280;50726;54.912;-8.392;2023-02-19T08:33:17;101549.88;;;25.99;71.89
64404;BME280;50726;54.912;-8.392;2023-02-19T08:35:43;101536.28;;;25.65;69.89
64404;BME280;50726;54.912;-8.392;2023-02-19T08:38:10;101557.75;;;26.63;70.68
64404;BME280;50726;54.912;-8.392;2023-02-19T08:40:37;101540.94;;;26.12;71.40
64404;BME280;50726;54.912;-8.392;2023-02-19T08:43:05;101532.63;;;26.64;73.02
64404;BME280;50726;54.912;-8.392;2023-02-19T08:45:31;101519.75;;;26.20;69.27
64404;BME280;50726;54.912;-8.392;2023-02-19T08:47:58;101532.22;;;25.46;70.80
64404;BME280;50726;54.912;-8.392;2023-02-19T08:50:24;101551.59;;;26.00;71.38
64404;BME280;50726;54.912;-8.392;2023-02-19T08:52:50;101534.41;;;25.02;70.26
64404;BME280;50726;54.912;-8.392;2023-02-19T08:55:16;101544.84;;;26.91;68.07
64404;BME280;50726;54.912;-8.392;2023-02-19T08:57:42;101570.06;;;27.47;66.71
64404;BME280;50726;54.912;-8.392;2023-02-19T09:00:08;101558.13;;;28.07;65.86
64404;BME280;50726;54.912;-8.392;2023-02-19T09:02:35;101576.72;;;25.10;74.94
64404;BME280;50726;54.912;-8.392;2023-02-19T09:05:01;101570.69;;;27.39;66.49
64404;BME280;50726;54.912;-8.392;2023-02-19T09:07:27;101556.25;;;27.74;67.06
64404;BME280;50726;54.912;-8.392;2023-02-19T09:09:52;101562.56;;;26.93;68.44
64404;BME280;50726;54.912;-8.392;2023-02-19T09:12:18;101574.44;;;24.91;71.57
64404;BME280;50726;54.912;-8.392;2023-02-19T09:14:44;101565.13;;;25.23;72.16
64404;BME280;50726;54.912;-8.392;2023-02-19T09:17:11;101559.53;;;24.33;75.75
64404;BME280;50726;54.912;-8.392;2023-02-19T09:19:36;101505.06;;;25.27;73.71
64404;BME280;50726;54.912;-8.392;2023-02-19T09:22:03;101515.09;;;25.49;72.83
64404;BME280;50726;54.912;-8.392;2023-02-19T09:24:30;101545.75;;;24.93;75.14
64404;BME280;50726;54.912;-8.392;2023-02-19T09:26:56;101535.16;;;25.04;76.52
64404;BME280;50726;54.912;-8.392;2023-02-19T09:29:26;101523.34;;;26.08;72.24
64404;BME280;50726;54.912;-8.392;2023-02-19T09:32:01;101519.31;;;26.26;72.69
64404;BME280;50726;54.912;-8.392;2023-02-19T09:34:28;101525.00;;;24.84;73.92
64404;BME280;50726;54.912;-8.392;2023-02-19T09:36:54;101549.56;;;26.64;72.24
64404;BME280;50726;54.912;-8.392;2023-02-19T09:39:20;101534.84;;;26.10;74.21
64404;BME280;50726;54.912;-8.392;2023-02-19T09:41:58;101539.75;;;25.54;71.88
64404;BME280;50726;54.912;-8.392;2023-02-19T09:44:29;101556.03;;;25.25;74.29
64404;BME280;50726;54.912;-8.392;2023-02-19T09:46:59;101578.28;;;25.26;76.42
64404;BME280;50726;54.912;-8.392;2023-02-19T09:49:29;101523.94;;;26.49;71.38
64404;BME280;50726;54.912;-8.392;2023-02-19T09:52:06;101558.88;;;25.61;72.87
64404;BME280;50726;54.912;-8.392;2023-02-19T09:54:36;101562.63;;;25.71;73.88
64404;BME280;50726;54.912;-8.392;2023-02-19T09:57:03;101554.81;;;26.30;71.16
64404;BME280;50726;54.912;-8.392;2023-02-19T09:59:50;101579.84;;;27.59;67.82
64404;BME280;50726;54.912;-8.392;2023-02-19T10:02:23;101569.69;;;27.86;70.93
64404;BME280;50726;54.912;-8.392;2023-02-19T10:04:51;101559.56;;;28.22;65.02
64404;BME280;50726;54.912;-8.392;2023-02-19T10:07:21;101559.78;;;26.48;68.16
64404;BME280;50726;54.912;-8.392;2023-02-19T10:09:52;101561.16;;;25.41;74.35
64404;BME280;50726;54.912;-8.392;2023-02-19T10:12:29;101606.94;;;27.45;68.95
64404;BME280;50726;54.912;-8.392;2023-02-19T10:15:10;101554.41;;;27.86;67.23
64404;BME280;50726;54.912;-8.392;2023-02-19T10:17:36;101545.91;;;27.70;66.62
64404;BME280;50726;54.912;-8.392;2023-02-19T10:20:03;101567.47;;;26.04;71.18
64404;BME280;50726;54.912;-8.392;2023-02-19T10:22:30;101563.34;;;28.20;66.59
64404;BME280;50726;54.912;-8.392;2023-02-19T10:24:57;101543.81;;;26.09;71.66
64404;BME280;50726;54.912;-8.392;2023-02-19T10:27:26;101535.78;;;28.39;67.68
64404;BME280;50726;54.912;-8.392;2023-02-19T10:29:54;101537.69;;;27.71;67.24
64404;BME280;50726;54.912;-8.392;2023-02-19T10:32:22;101555.16;;;27.54;69.70
64404;BME280;50726;54.912;-8.392;2023-02-19T10:35:14;101537.03;;;27.91;66.83
64404;BME280;50726;54.912;-8.392;2023-02-19T10:37:48;101515.25;;;26.92;68.35
64404;BME280;50726;54.912;-8.392;2023-02-19T10:40:17;101529.84;;;29.40;65.81
64404;BME280;50726;54.912;-8.392;2023-02-19T10:42:48;101552.97;;;27.25;69.29
64404;BME280;50726;54.912;-8.392;2023-02-19T10:45:21;101491.59;;;24.89;73.58
64404;BME280;50726;54.912;-8.392;2023-02-19T10:47:48;101527.47;;;27.31;69.89
64404;BME280;50726;54.912;-8.392;2023-02-19T10:50:26;101523.91;;;27.53;67.94
64404;BME280;50726;54.912;-8.392;2023-02-19T10:52:54;101497.88;;;26.74;72.47
64404;BME280;50726;54.912;-8.392;2023-02-19T10:55:30;101527.69;;;25.73;76.58
64404;BME280;50726;54.912;-8.392;2023-02-19T10:57:56;101492.97;;;25.08;75.57
64404;BME280;50726;54.912;-8.392;2023-02-19T11:03:13;101459.47;;;25.53;78.95
64404;BME280;50726;54.912;-8.392;2023-02-19T11:06:12;101475.53;;;26.62;73.55
64404;BME280;50726;54.912;-8.392;2023-02-19T11:11:21;101458.44;;;29.85;66.15
64404;BME280;50726;54.912;-8.392;2023-02-19T11:13:47;101492.53;;;27.42;69.14
64404;BME280;50726;54.912;-8.392;2023-02-19T11:16:13;101491.19;;;27.59;68.22
64404;BME280;50726;54.912;-8.392;2023-02-19T11:18:39;101483.03;;;27.15;71.06
64404;BME280;50726;54.912;-8.392;2023-02-19T11:21:16;101530.75;;;27.00;72.03
64404;BME280;50726;54.912;-8.392;2023-02-19T11:23:47;101462.00;;;26.63;71.91
64404;BME280;50726;54.912;-8.392;2023-02-19T11:26:22;101469.53;;;28.05;70.79
64404;BME280;50726;54.912;-8.392;2023-02-19T11:28:56;101484.44;;;30.26;65.93
64404;BME280;50726;54.912;-8.392;2023-02-19T11:31:26;101452.75;;;29.59;64.35
64404;BME280;50726;54.912;-8.392;2023-02-19T11:33:54;101467.78;;;29.91;62.20
64404;BME280;50726;54.912;-8.392;2023-02-19T11:36:28;101475.44;;;29.76;62.64
64404;BME280;50726;54.912;-8.392;2023-02-19T11:38:55;101448.88;;;28.70;66.25
64404;BME280;50726;54.912;-8.392;2023-02-19T11:57:37;101441.25;;;29.96;66.63
64404;BME280;50726;54.912;-8.392;2023-02-19T12:02:58;101407.19;;;31.29;61.48
64404;BME280;50726;54.912;-8.392;2023-02-19T12:18:57;101424.81;;;29.99;59.18
64404;BME280;50726;54.912;-8.392;2023-02-19T12:22:15;101409.22;;;29.13;60.91
64404;BME280;50726;54.912;-8.392;2023-02-19T12:33:37;101406.88;;;32.58;54.68
64404;BME280;50726;54.912;-8.392;2023-02-19T12:44:10;101409.22;;;29.03;62.11
64404;BME280;50726;54.912;-8.392;2023-02-19T12:46:39;101406.19;;;28.12;64.06
64404;BME280;50726;54.912;-8.392;2023-02-19T12:51:47;101341.13;;;28.50;62.18
64404;BME280;50726;54.912;-8.392;2023-02-19T12:57:03;101320.63;;;28.90;62.23
64404;BME280;50726;54.912;-8.392;2023-02-19T12:59:38;101388.72;;;31.42;56.25
64404;BME280;50726;54.912;-8.392;2023-02-19T13:02:19;101372.00;;;29.87;60.54
64404;BME280;50726;54.912;-8.392;2023-02-19T13:04:52;101419.03;;;27.87;62.11
64404;BME280;50726;54.912;-8.392;2023-02-19T13:07:46;101337.38;;;28.10;63.67
64404;BME280;50726;54.912;-8.392;2023-02-19T13:10:32;101350.44;;;27.39;64.89
64404;BME280;50726;54.912;-8.392;2023-02-19T13:13:05;101334.59;;;27.69;65.74
64404;BME280;50726;54.912;-8.392;2023-02-19T13:15:39;101348.66;;;28.56;63.47
64404;BME280;50726;54.912;-8.392;2023-02-19T13:18:30;101324.66;;;28.12;65.81
64404;BME280;50726;54.912;-8.392;2023-02-19T13:20:58;101342.31;;;28.88;64.28
64404;BME280;50726;54.912;-8.392;2023-02-19T13:23:36;101303.47;;;28.91;64.75
64404;BME280;50726;54.912;-8.392;2023-02-19T13:26:37;101331.16;;;30.39;62.73
64404;BME280;50726;54.912;-8.392;2023-02-19T13:37:31;101331.59;;;30.63;63.49
64404;BME280;50726;54.912;-8.392;2023-02-19T13:40:05;101328.56;;;28.50;68.55
64404;BME280;50726;54.912;-8.392;2023-02-19T13:42:33;101319.38;;;29.43;66.59
64404;BME280;50726;54.912;-8.392;2023-02-19T13:45:02;101336.28;;;30.33;64.56
64404;BME280;50726;54.912;-8.392;2023-02-19T13:47:57;101313.69;;;28.97;67.56
64404;BME280;50726;54.912;-8.392;2023-02-19T13:50:31;101312.00;;;29.45;66.87
64404;BME280;50726;54.912;-8.392;2023-02-19T14:04:41;101274.66;;;27.78;73.22
64404;BME280;50726;54.912;-8.392;2023-02-19T14:14:35;101265.53;;;28.43;74.72
64404;BME280;50726;54.912;-8.392;2023-02-19T14:27:42;101228.09;;;27.56;75.45
64404;BME280;50726;54.912;-8.392;2023-02-19T14:30:11;101215.94;;;27.52;75.69
64404;BME280;50726;54.912;-8.392;2023-02-19T14:32:39;101256.25;;;28.26;74.02
64404;BME280;50726;54.912;-8.392;2023-02-19T14:35:05;101245.59;;;28.65;71.32
64404;BME280;50726;54.912;-8.392;2023-02-19T14:37:31;101228.34;;;29.37;69.68
64404;BME280;50726;54.912;-8.392;2023-02-19T14:39:57;101225.19;;;29.71;69.49
64404;BME280;50726;54.912;-8.392;2023-02-19T14:42:24;101251.72;;;29.66;71.90
64404;BME280;50726;54.912;-8.392;2023-02-19T14:44:59;101260.16;;;27.48;74.56
64404;BME280;50726;54.912;-8.392;2023-02-19T14:47:27;101197.72;;;28.59;73.48
64404;BME280;50726;54.912;-8.392;2023-02-19T14:50:20;101163.91;;;28.86;71.83
64404;BME280;50726;54.912;-8.392;2023-02-19T14:52:53;101178.91;;;30.42;68.94
64404;BME280;50726;54.912;-8.392;2023-02-19T14:55:29;101181.09;;;27.93;74.50
64404;BME280;50726;54.912;-8.392;2023-02-19T14:57:59;101269.66;;;26.87;76.86
64404;BME280;50726;54.912;-8.392;2023-02-19T15:00:38;101204.44;;;29.04;73.39
64404;BME280;50726;54.912;-8.392;2023-02-19T15:03:04;101196.06;;;28.98;74.30